sensor_id;sensor_type;location;lat;lon;timestamp;P1;durP1;ratioP1;P2;durP2;ratioP2
78646;SDS011;67961;43.460;3.762;2023-06-14T00:00:21;3.67;;;3.03;;
78646;SDS011;67961;43.460;3.762;2023-06-14T00:02:47;4.13;;;3.25;;
78646;SDS011;67961;43.460;3.762;2023-06-14T00:05:13;4.05;;;3.03;;
78646;SDS011;67961;43.460;3.762;2023-06-14T00:07:40;3.58;;;2.95;;
78646;SDS011;67961;43.460;3.762;2023-06-14T00:10:07;4.72;;;3.55;;
78646;SDS011;67961;43.460;3.762;2023-06-14T00:12:33;3.97;;;3.28;;
78646;SDS011;67961;43.460;3.762;2023-06-14T00:15:00;3.80;;;3.00;;
78646;SDS011;67961;43.460;3.762;2023-06-14T00:17:26;4.05;;;3.35;;
78646;SDS011;67961;43.460;3.762;2023-06-14T00:19:55;3.90;;;3.00;;
78646;SDS011;67961;43.460;3.762;2023-06-14T00:22:22;8.30;;;3.45;;
78646;SDS011;67961;43.460;3.762;2023-06-14T00:24:49;4.43;;;3.05;;
78646;SDS011;67961;43.460;3.762;2023-06-14T00:27:15;5.80;;;3.50;;
78646;SDS011;67961;43.460;3.762;2023-06-14T00:29:41;4.85;;;3.30;;
78646;SDS011;67961;43.460;3.762;2023-06-14T00:32:07;5.10;;;3.15;;
78646;SDS011;67961;43.460;3.762;2023-06-14T00:34:34;4.38;;;3.33;;
78646;SDS011;67961;43.460;3.762;2023-06-14T00:37:00;4.43;;;3.25;;
78646;SDS011;67961;43.460;3.762;2023-06-14T00:39:26;4.80;;;3.42;;
78646;SDS011;67961;43.460;3.762;2023-06-14T00:41:52;6.90;;;2.70;;
78646;SDS011;67961;43.460;3.762;2023-06-14T00:44:18;3.70;;;3.17;;
78646;SDS011;67961;43.460;3.762;2023-06-14T00:46:47;3.83;;;2.97;;
78646;SDS011;67961;43.460;3.762;2023-06-14T00:49:14;3.80;;;3.13;;
78646;SDS011;67961;43.460;3.762;2023-06-14T00:51:41;4.50;;;3.08;;
78646;SDS011;67961;43.460;3.762;2023-06-14T00:54:07;5.60;;;3.13;;
78646;SDS011;67961;43.460;3.762;2023-06-14T00:56:35;5.15;;;2.88;;
78646;SDS011;67961;43.460;3.762;2023-06-14T00:59:02;5.95;;;3.10;;
78646;SDS011;67961;43.460;3.762;2023-06-14T01:01:28;4.47;;;3.15;;
78646;SDS011;67961;43.460;3.762;2023-06-14T01:03:57;7.30;;;3.00;;
78646;SDS011;67961;43.460;3.762;2023-06-14T01:09:13;7.97;;;3.45;;
78646;SDS011;67961;43.460;3.762;2023-06-14T01:11:45;5.10;;;3.55;;
78646;SDS011;67961;43.460;3.762;2023-06-14T01:14:13;4.20;;;3.28;;
78646;SDS011;67961;43.460;3.762;2023-06-14T01:16:40;6.45;;;3.15;;
78646;SDS011;67961;43.460;3.762;2023-06-14T01:19:07;6.35;;;3.40;;
78646;SDS011;67961;43.460;3.762;2023-06-14T01:21:38;4.22;;;3.05;;
78646;SDS011;67961;43.460;3.762;2023-06-14T01:24:07;5.68;;;3.33;;
78646;SDS011;67961;43.460;3.762;2023-06-14T01:26:33;4.15;;;3.20;;
78646;SDS011;67961;43.460;3.762;2023-06-14T01:29:00;3.33;;;2.70;;
78646;SDS011;67961;43.460;3.762;2023-06-14T01:31:26;4.32;;;3.20;;
78646;SDS011;67961;43.460;3.762;2023-06-14T01:33:54;9.70;;;3.47;;
78646;SDS011;67961;43.460;3.762;2023-06-14T01:36:20;6.63;;;3.25;;
78646;SDS011;67961;43.460;3.762;2023-06-14T01:38:48;4.85;;;3.45;;
78646;SDS011;67961;43.460;3.762;2023-06-14T01:41:16;5.38;;;2.80;;
78646;SDS011;67961;43.460;3.762;2023-06-14T01:43:43;3.60;;;2.90;;
78646;SDS011;67961;43.460;3.762;2023-06-14T01:46:10;5.60;;;3.35;;
78646;SDS011;67961;43.460;3.762;2023-06-14T01:48:36;4.60;;;3.05;;
78646;SDS011;67961;43.460;3.762;2023-06-14T01:51:02;4.93;;;3.20;;
78646;SDS011;67961;43.460;3.762;2023-06-14T01:53:28;3.70;;;3.03;;
78646;SDS011;67961;43.460;3.762;2023-06-14T01:55:54;5.22;;;3.47;;
78646;SDS011;67961;43.460;3.762;2023-06-14T01:58:21;3.60;;;2.90;;
78646;SDS011;67961;43.460;3.762;2023-06-14T02:00:48;4.72;;;3.05;;
78646;SDS011;67961;43.460;3.762;2023-06-14T02:03:16;4.32;;;3.25;;
78646;SDS011;67961;43.460;3.762;2023-06-14T02:05:44;3.63;;;3.08;;
78646;SDS011;67961;43.460;3.762;2023-06-14T02:08:10;6.68;;;3.08;;
78646;SDS011;67961;43.460;3.762;2023-06-14T02:10:36;6.88;;;3.45;;
78646;SDS011;67961;43.460;3.762;2023-06-14T02:13:02;5.22;;;3.33;;
78646;SDS011;67961;43.460;3.762;2023-06-14T02:15:28;3.72;;;2.70;;
78646;SDS011;67961;43.460;3.762;2023-06-14T02:17:59;3.78;;;2.63;;
78646;SDS011;67961;43.460;3.762;2023-06-14T02:20:25;7.00;;;3.38;;
78646;SDS011;67961;43.460;3.762;2023-06-14T02:22:51;11.55;;;4.00;;
78646;SDS011;67961;43.460;3.762;2023-06-14T02:25:17;4.85;;;3.22;;
78646;SDS011;67961;43.460;3.762;2023-06-14T02:27:43;5.82;;;3.58;;
78646;SDS011;67961;43.460;3.762;2023-06-14T02:30:09;5.93;;;2.88;;
78646;SDS011;67961;43.460;3.762;2023-06-14T02:32:36;4.63;;;3.45;;
78646;SDS011;67961;43.460;3.762;2023-06-14T02:35:02;6.28;;;3.22;;
78646;SDS011;67961;43.460;3.762;2023-06-14T02:37:28;3.85;;;3.25;;
78646;SDS011;67961;43.460;3.762;2023-06-14T02:39:55;4.97;;;3.15;;
78646;SDS011;67961;43.460;3.762;2023-06-14T02:42:21;5.95;;;3.22;;
78646;SDS011;67961;43.460;3.762;2023-06-14T02:44:47;5.32;;;3.25;;
78646;SDS011;67961;43.460;3.762;2023-06-14T02:47:16;7.00;;;2.95;;
78646;SDS011;67961;43.460;3.762;2023-06-14T02:49:42;4.03;;;3.35;;
78646;SDS011;67961;43.460;3.762;2023-06-14T02:52:08;5.38;;;3.10;;
78646;SDS011;67961;43.460;3.762;2023-06-14T02:54:34;7.03;;;3.13;;
78646;SDS011;67961;43.460;3.762;2023-06-14T02:57:01;7.22;;;3.30;;
78646;SDS011;67961;43.460;3.762;2023-06-14T02:59:27;5.22;;;3.80;;
78646;SDS011;67961;43.460;3.762;2023-06-14T03:01:53;4.28;;;3.45;;
78646;SDS011;67961;43.460;3.762;2023-06-14T03:04:19;6.93;;;3.05;;
78646;SDS011;67961;43.460;3.762;2023-06-14T03:06:45;4.30;;;3.42;;
78646;SDS011;67961;43.460;3.762;2023-06-14T03:09:15;4.47;;;3.20;;
78646;SDS011;67961;43.460;3.762;2023-06-14T03:11:41;5.25;;;3.35;;
78646;SDS011;67961;43.460;3.762;2023-06-14T03:14:07;5.68;;;3.20;;
78646;SDS011;67961;43.460;3.762;2023-06-14T03:16:34;4.82;;;3.20;;
78646;SDS011;67961;43.460;3.762;2023-06-14T03:19:02;3.97;;;2.92;;
78646;SDS011;67961;43.460;3.762;2023-06-14T03:21:28;4.78;;;3.50;;
78646;SDS011;67961;43.460;3.762;2023-06-14T03:23:54;3.90;;;3.28;;
78646;SDS011;67961;43.460;3.762;2023-06-14T03:26:20;5.82;;;3.30;;
78646;SDS011;67961;43.460;3.762;2023-06-14T03:28:47;4.05;;;3.08;;
78646;SDS011;67961;43.460;3.762;2023-06-14T03:31:14;4.20;;;3.40;;
78646;SDS011;67961;43.460;3.762;2023-06-14T03:33:41;4.05;;;2.85;;
78646;SDS011;67961;43.460;3.762;2023-06-14T03:36:07;4.05;;;3.13;;
78646;SDS011;67961;43.460;3.762;2023-06-14T03:38:33;3.95;;;3.10;;
78646;SDS011;67961;43.460;3.762;2023-06-14T03:41:00;6.57;;;3.10;;
78646;SDS011;67961;43.460;3.762;2023-06-14T03:43:26;5.13;;;3.38;;
78646;SDS011;67961;43.460;3.762;2023-06-14T03:45:52;8.32;;;3.00;;
78646;SDS011;67961;43.460;3.762;2023-06-14T03:48:18;4.55;;;3.17;;
78646;SDS011;67961;43.460;3.762;2023-06-14T03:50:44;4.13;;;3.20;;
78646;SDS011;67961;43.460;3.762;2023-06-14T03:53:11;4.70;;;3.20;;
78646;SDS011;67961;43.460;3.762;2023-06-14T03:55:37;5.05;;;3.10;;
78646;SDS011;67961;43.460;3.762;2023-06-14T03:58:03;4.05;;;3.08;;
78646;SDS011;67961;43.460;3.762;2023-06-14T04:00:29;6.22;;;3.25;;
78646;SDS011;67961;43.460;3.762;2023-06-14T04:02:55;6.38;;;3.65;;
78646;SDS011;67961;43.460;3.762;2023-06-14T04:05:21;5.43;;;3.03;;
78646;SDS011;67961;43.460;3.762;2023-06-14T04:07:48;3.90;;;2.90;;
78646;SDS011;67961;43.460;3.762;2023-06-14T04:10:15;3.92;;;2.97;;
78646;SDS011;67961;43.460;3.762;2023-06-14T04:12:42;4.38;;;2.85;;
78646;SDS011;67961;43.460;3.762;2023-06-14T04:15:08;4.05;;;3.17;;
78646;SDS011;67961;43.460;3.762;2023-06-14T04:17:35;3.65;;;2.85;;
78646;SDS011;67961;43.460;3.762;2023-06-14T04:20:01;4.07;;;2.97;;
78646;SDS011;67961;43.460;3.762;2023-06-14T04:22:30;4.30;;;3.05;;
78646;SDS011;67961;43.460;3.762;2023-06-14T04:24:56;3.72;;;3.08;;
78646;SDS011;67961;43.460;3.762;2023-06-14T04:27:23;5.13;;;2.90;;
78646;SDS011;67961;43.460;3.762;2023-06-14T04:29:54;4.38;;;2.78;;
78646;SDS011;67961;43.460;3.762;2023-06-14T04:32:24;5.28;;;2.80;;
78646;SDS011;67961;43.460;3.762;2023-06-14T04:34:54;6.03;;;2.80;;
78646;SDS011;67961;43.460;3.762;2023-06-14T04:37:23;4.63;;;2.95;;
78646;SDS011;67961;43.460;3.762;2023-06-14T04:39:49;3.30;;;2.80;;
78646;SDS011;67961;43.460;3.762;2023-06-14T04:42:16;3.58;;;2.80;;
78646;SDS011;67961;43.460;3.762;2023-06-14T04:44:45;3.88;;;2.80;;
78646;SDS011;67961;43.460;3.762;2023-06-14T04:47:12;4.07;;;2.90;;
78646;SDS011;67961;43.460;3.762;2023-06-14T04:49:41;4.47;;;3.05;;
78646;SDS011;67961;43.460;3.762;2023-06-14T04:52:07;3.40;;;2.72;;
78646;SDS011;67961;43.460;3.762;2023-06-14T04:54:35;4.88;;;3.03;;
78646;SDS011;67961;43.460;3.762;2023-06-14T04:57:03;4.05;;;3.25;;
78646;SDS011;67961;43.460;3.762;2023-06-14T04:59:29;6.93;;;3.20;;
78646;SDS011;67961;43.460;3.762;2023-06-14T05:01:58;4.43;;;2.95;;
78646;SDS011;67961;43.460;3.762;2023-06-14T05:04:25;6.53;;;3.92;;
78646;SDS011;67961;43.460;3.762;2023-06-14T05:06:51;4.40;;;2.80;;
78646;SDS011;67961;43.460;3.762;2023-06-14T05:09:19;6.43;;;3.20;;
78646;SDS011;67961;43.460;3.762;2023-06-14T05:11:46;4.32;;;2.90;;
78646;SDS011;67961;43.460;3.762;2023-06-14T05:14:12;4.35;;;3.22;;
78646;SDS011;67961;43.460;3.762;2023-06-14T05:16:39;6.95;;;3.13;;
78646;SDS011;67961;43.460;3.762;2023-06-14T05:19:05;4.10;;;2.95;;
78646;SDS011;67961;43.460;3.762;2023-06-14T05:21:32;3.92;;;3.10;;
78646;SDS011;67961;43.460;3.762;2023-06-14T05:24:02;8.05;;;3.42;;
78646;SDS011;67961;43.460;3.762;2023-06-14T05:26:28;4.03;;;3.00;;
78646;SDS011;67961;43.460;3.762;2023-06-14T05:28:55;6.05;;;3.22;;
78646;SDS011;67961;43.460;3.762;2023-06-14T05:31:22;5.10;;;3.40;;
78646;SDS011;67961;43.460;3.762;2023-06-14T05:33:48;4.93;;;3.45;;
78646;SDS011;67961;43.460;3.762;2023-06-14T05:36:15;7.43;;;3.05;;
78646;SDS011;67961;43.460;3.762;2023-06-14T05:38:41;4.65;;;3.40;;
78646;SDS011;67961;43.460;3.762;2023-06-14T05:41:07;7.93;;;3.42;;
78646;SDS011;67961;43.460;3.762;2023-06-14T05:43:33;7.78;;;3.20;;
78646;SDS011;67961;43.460;3.762;2023-06-14T05:45:59;3.75;;;2.60;;
78646;SDS011;67961;43.460;3.762;2023-06-14T05:48:25;9.07;;;3.00;;
78646;SDS011;67961;43.460;3.762;2023-06-14T05:50:51;4.13;;;3.47;;
78646;SDS011;67961;43.460;3.762;2023-06-14T05:53:17;3.70;;;2.72;;
78646;SDS011;67961;43.460;3.762;2023-06-14T05:55:43;3.90;;;2.80;;
78646;SDS011;67961;43.460;3.762;2023-06-14T05:58:09;9.15;;;2.92;;
78646;SDS011;67961;43.460;3.762;2023-06-14T06:00:35;3.95;;;2.92;;
78646;SDS011;67961;43.460;3.762;2023-06-14T06:03:01;2.83;;;2.40;;
78646;SDS011;67961;43.460;3.762;2023-06-14T06:05:27;4.53;;;2.90;;
78646;SDS011;67961;43.460;3.762;2023-06-14T06:07:53;5.22;;;2.85;;
78646;SDS011;67961;43.460;3.762;2023-06-14T06:10:19;4.93;;;3.00;;
78646;SDS011;67961;43.460;3.762;2023-06-14T06:12:45;5.03;;;2.95;;
78646;SDS011;67961;43.460;3.762;2023-06-14T06:15:13;5.38;;;3.28;;
78646;SDS011;67961;43.460;3.762;2023-06-14T06:17:39;5.78;;;3.10;;
78646;SDS011;67961;43.460;3.762;2023-06-14T06:20:06;5.25;;;3.50;;
78646;SDS011;67961;43.460;3.762;2023-06-14T06:22:33;5.30;;;3.15;;
78646;SDS011;67961;43.460;3.762;2023-06-14T06:24:59;6.15;;;3.10;;
78646;SDS011;67961;43.460;3.762;2023-06-14T06:27:25;7.20;;;3.78;;
78646;SDS011;67961;43.460;3.762;2023-06-14T06:29:51;8.15;;;3.13;;
78646;SDS011;67961;43.460;3.762;2023-06-14T06:32:18;7.03;;;3.92;;
78646;SDS011;67961;43.460;3.762;2023-06-14T06:34:44;10.70;;;3.30;;
78646;SDS011;67961;43.460;3.762;2023-06-14T06:37:10;8.77;;;3.30;;
78646;SDS011;67961;43.460;3.762;2023-06-14T06:39:36;7.35;;;3.15;;
78646;SDS011;67961;43.460;3.762;2023-06-14T06:42:02;4.55;;;3.30;;
78646;SDS011;67961;43.460;3.762;2023-06-14T06:44:28;5.35;;;3.08;;
78646;SDS011;67961;43.460;3.762;2023-06-14T06:46:54;8.65;;;3.22;;
78646;SDS011;67961;43.460;3.762;2023-06-14T06:49:20;8.13;;;3.10;;
78646;SDS011;67961;43.460;3.762;2023-06-14T06:51:59;6.30;;;3.60;;
78646;SDS011;67961;43.460;3.762;2023-06-14T06:54:27;7.03;;;2.90;;
78646;SDS011;67961;43.460;3.762;2023-06-14T06:56:53;5.90;;;2.90;;
78646;SDS011;67961;43.460;3.762;2023-06-14T06:59:19;8.18;;;2.95;;
78646;SDS011;67961;43.460;3.762;2023-06-14T07:01:45;4.65;;;2.92;;
78646;SDS011;67961;43.460;3.762;2023-06-14T07:04:12;6.30;;;2.80;;
78646;SDS011;67961;43.460;3.762;2023-06-14T07:06:38;6.10;;;2.90;;
78646;SDS011;67961;43.460;3.762;2023-06-14T07:09:04;4.05;;;2.58;;
78646;SDS011;67961;43.460;3.762;2023-06-14T07:11:33;5.75;;;3.20;;
78646;SDS011;67961;43.460;3.762;2023-06-14T07:13:59;4.20;;;2.65;;
78646;SDS011;67961;43.460;3.762;2023-06-14T07:16:27;4.93;;;2.72;;
78646;SDS011;67961;43.460;3.762;2023-06-14T07:18:53;6.07;;;3.08;;
78646;SDS011;67961;43.460;3.762;2023-06-14T07:21:20;7.65;;;3.20;;
78646;SDS011;67961;43.460;3.762;2023-06-14T07:23:46;5.28;;;2.90;;
78646;SDS011;67961;43.460;3.762;2023-06-14T07:26:12;4.70;;;2.95;;
78646;SDS011;67961;43.460;3.762;2023-06-14T07:28:38;2.88;;;2.45;;
78646;SDS011;67961;43.460;3.762;2023-06-14T07:31:04;4.43;;;2.65;;
78646;SDS011;67961;43.460;3.762;2023-06-14T07:33:30;5.15;;;2.85;;
78646;SDS011;67961;43.460;3.762;2023-06-14T07:35:56;3.38;;;2.33;;
78646;SDS011;67961;43.460;3.762;2023-06-14T07:38:22;6.72;;;2.58;;
78646;SDS011;67961;43.460;3.762;2023-06-14T07:40:48;4.25;;;2.38;;
78646;SDS011;67961;43.460;3.762;2023-06-14T07:43:14;4.07;;;3.28;;
78646;SDS011;67961;43.460;3.762;2023-06-14T07:45:40;5.80;;;2.47;;
78646;SDS011;67961;43.460;3.762;2023-06-14T07:48:06;4.57;;;2.55;;
78646;SDS011;67961;43.460;3.762;2023-06-14T07:50:33;5.80;;;2.75;;
78646;SDS011;67961;43.460;3.762;2023-06-14T07:52:59;4.60;;;2.70;;
78646;SDS011;67961;43.460;3.762;2023-06-14T07:55:25;4.38;;;2.55;;
78646;SDS011;67961;43.460;3.762;2023-06-14T07:57:51;4.10;;;2.88;;
78646;SDS011;67961;43.460;3.762;2023-06-14T08:00:17;6.60;;;3.00;;
78646;SDS011;67961;43.460;3.762;2023-06-14T08:02:45;3.70;;;2.33;;
78646;SDS011;67961;43.460;3.762;2023-06-14T08:05:11;2.63;;;2.17;;
78646;SDS011;67961;43.460;3.762;2023-06-14T08:07:40;3.53;;;2.67;;
78646;SDS011;67961;43.460;3.762;2023-06-14T08:10:06;2.78;;;2.30;;
78646;SDS011;67961;43.460;3.762;2023-06-14T08:12:32;3.10;;;2.28;;
78646;SDS011;67961;43.460;3.762;2023-06-14T08:14:59;3.65;;;2.50;;
78646;SDS011;67961;43.460;3.762;2023-06-14T08:17:25;4.28;;;2.38;;
78646;SDS011;67961;43.460;3.762;2023-06-14T08:19:51;3.63;;;2.63;;
78646;SDS011;67961;43.460;3.762;2023-06-14T08:22:19;3.78;;;2.30;;
78646;SDS011;67961;43.460;3.762;2023-06-14T08:24:46;4.63;;;2.63;;
78646;SDS011;67961;43.460;3.762;2023-06-14T08:27:13;2.63;;;2.30;;
78646;SDS011;67961;43.460;3.762;2023-06-14T08:29:39;5.70;;;2.58;;
78646;SDS011;67961;43.460;3.762;2023-06-14T08:32:06;3.38;;;2.30;;
78646;SDS011;67961;43.460;3.762;2023-06-14T08:34:32;3.88;;;2.45;;
78646;SDS011;67961;43.460;3.762;2023-06-14T08:36:58;3.13;;;2.30;;
78646;SDS011;67961;43.460;3.762;2023-06-14T08:39:24;3.97;;;2.25;;
78646;SDS011;67961;43.460;3.762;2023-06-14T08:41:50;3.28;;;2.50;;
78646;SDS011;67961;43.460;3.762;2023-06-14T08:44:18;2.60;;;2.30;;
78646;SDS011;67961;43.460;3.762;2023-06-14T08:46:44;6.63;;;2.90;;
78646;SDS011;67961;43.460;3.762;2023-06-14T08:49:11;5.65;;;3.13;;
78646;SDS011;67961;43.460;3.762;2023-06-14T08:51:38;11.48;;;3.00;;
78646;SDS011;67961;43.460;3.762;2023-06-14T08:54:05;4.78;;;2.80;;
78646;SDS011;67961;43.460;3.762;2023-06-14T08:56:32;4.18;;;3.03;;
78646;SDS011;67961;43.460;3.762;2023-06-14T08:58:59;4.57;;;2.92;;
78646;SDS011;67961;43.460;3.762;2023-06-14T09:01:28;5.53;;;3.60;;
78646;SDS011;67961;43.460;3.762;2023-06-14T09:03:54;5.70;;;3.65;;
78646;SDS011;67961;43.460;3.762;2023-06-14T09:06:22;4.85;;;3.08;;
78646;SDS011;67961;43.460;3.762;2023-06-14T09:08:48;7.05;;;3.35;;
78646;SDS011;67961;43.460;3.762;2023-06-14T09:11:15;5.85;;;3.58;;
78646;SDS011;67961;43.460;3.762;2023-06-14T09:13:43;7.18;;;3.20;;
78646;SDS011;67961;43.460;3.762;2023-06-14T09:16:09;10.88;;;3.42;;
78646;SDS011;67961;43.460;3.762;2023-06-14T09:21:06;9.77;;;3.30;;
78646;SDS011;67961;43.460;3.762;2023-06-14T09:23:36;6.32;;;2.80;;
78646;SDS011;67961;43.460;3.762;2023-06-14T09:26:10;4.88;;;3.10;;
78646;SDS011;67961;43.460;3.762;2023-06-14T09:28:36;7.55;;;3.35;;
78646;SDS011;67961;43.460;3.762;2023-06-14T09:31:02;4.68;;;2.97;;
78646;SDS011;67961;43.460;3.762;2023-06-14T09:33:28;5.20;;;3.30;;
78646;SDS011;67961;43.460;3.762;2023-06-14T09:35:54;5.22;;;3.40;;
78646;SDS011;67961;43.460;3.762;2023-06-14T09:38:20;7.95;;;3.08;;
78646;SDS011;67961;43.460;3.762;2023-06-14T09:40:46;4.28;;;2.85;;
78646;SDS011;67961;43.460;3.762;2023-06-14T09:43:12;6.50;;;3.10;;
78646;SDS011;67961;43.460;3.762;2023-06-14T09:45:39;4.80;;;2.95;;
78646;SDS011;67961;43.460;3.762;2023-06-14T09:48:06;5.07;;;3.30;;
78646;SDS011;67961;43.460;3.762;2023-06-14T09:50:33;10.60;;;3.30;;
78646;SDS011;67961;43.460;3.762;2023-06-14T09:53:06;5.20;;;2.97;;
78646;SDS011;67961;43.460;3.762;2023-06-14T09:55:36;7.55;;;3.63;;
78646;SDS011;67961;43.460;3.762;2023-06-14T09:58:06;5.80;;;3.10;;
78646;SDS011;67961;43.460;3.762;2023-06-14T10:00:32;5.80;;;3.00;;
78646;SDS011;67961;43.460;3.762;2023-06-14T10:03:21;4.85;;;3.70;;
78646;SDS011;67961;43.460;3.762;2023-06-14T10:05:47;6.18;;;3.67;;
78646;SDS011;67961;43.460;3.762;2023-06-14T10:08:14;5.15;;;3.03;;
78646;SDS011;67961;43.460;3.762;2023-06-14T10:10:42;7.07;;;3.20;;
78646;SDS011;67961;43.460;3.762;2023-06-14T10:13:08;7.28;;;3.42;;
78646;SDS011;67961;43.460;3.762;2023-06-14T10:18:06;7.55;;;3.28;;
78646;SDS011;67961;43.460;3.762;2023-06-14T10:20:34;5.60;;;3.30;;
78646;SDS011;67961;43.460;3.762;2023-06-14T10:23:06;8.32;;;2.80;;
78646;SDS011;67961;43.460;3.762;2023-06-14T10:25:33;11.77;;;3.53;;
78646;SDS011;67961;43.460;3.762;2023-06-14T10:28:19;7.88;;;3.20;;
78646;SDS011;67961;43.460;3.762;2023-06-14T10:33:32;4.03;;;2.70;;
78646;SDS011;67961;43.460;3.762;2023-06-14T10:38:34;4.43;;;3.08;;
78646;SDS011;67961;43.460;3.762;2023-06-14T10:41:02;5.93;;;3.05;;
78646;SDS011;67961;43.460;3.762;2023-06-14T10:43:28;9.02;;;3.70;;
78646;SDS011;67961;43.460;3.762;2023-06-14T10:48:45;5.15;;;3.63;;
78646;SDS011;67961;43.460;3.762;2023-06-14T10:51:15;3.95;;;3.00;;
78646;SDS011;67961;43.460;3.762;2023-06-14T10:53:45;5.00;;;3.28;;
78646;SDS011;67961;43.460;3.762;2023-06-14T10:56:26;7.25;;;3.10;;
78646;SDS011;67961;43.460;3.762;2023-06-14T10:58:53;4.65;;;3.28;;
78646;SDS011;67961;43.460;3.762;2023-06-14T11:01:23;6.30;;;3.25;;
78646;SDS011;67961;43.460;3.762;2023-06-14T11:03:54;3.83;;;2.97;;
78646;SDS011;67961;43.460;3.762;2023-06-14T11:06:22;4.20;;;3.28;;
78646;SDS011;67961;43.460;3.762;2023-06-14T11:11:33;5.30;;;2.90;;
78646;SDS011;67961;43.460;3.762;2023-06-14T11:13:59;4.47;;;3.35;;
78646;SDS011;67961;43.460;3.762;2023-06-14T11:16:27;3.70;;;2.70;;
78646;SDS011;67961;43.460;3.762;2023-06-14T11:18:53;4.38;;;3.17;;
78646;SDS011;67961;43.460;3.762;2023-06-14T11:21:19;6.00;;;3.20;;
78646;SDS011;67961;43.460;3.762;2023-06-14T11:23:52;8.05;;;3.55;;
78646;SDS011;67961;43.460;3.762;2023-06-14T11:26:30;5.60;;;2.95;;
78646;SDS011;67961;43.460;3.762;2023-06-14T11:28:56;4.45;;;3.00;;
78646;SDS011;67961;43.460;3.762;2023-06-14T11:31:23;4.18;;;2.92;;
78646;SDS011;67961;43.460;3.762;2023-06-14T11:33:49;4.50;;;3.33;;
78646;SDS011;67961;43.460;3.762;2023-06-14T11:36:15;6.90;;;3.90;;
78646;SDS011;67961;43.460;3.762;2023-06-14T11:38:41;6.15;;;3.35;;
78646;SDS011;67961;43.460;3.762;2023-06-14T11:41:08;8.48;;;2.88;;
78646;SDS011;67961;43.460;3.762;2023-06-14T11:43:35;4.00;;;3.20;;
78646;SDS011;67961;43.460;3.762;2023-06-14T11:46:01;4.65;;;3.50;;
78646;SDS011;67961;43.460;3.762;2023-06-14T11:48:40;4.53;;;3.10;;
78646;SDS011;67961;43.460;3.762;2023-06-14T11:51:06;3.55;;;2.85;;
78646;SDS011;67961;43.460;3.762;2023-06-14T11:53:32;5.47;;;3.08;;
78646;SDS011;67961;43.460;3.762;2023-06-14T11:55:59;3.90;;;3.50;;
78646;SDS011;67961;43.460;3.762;2023-06-14T11:58:25;3.45;;;2.85;;
78646;SDS011;67961;43.460;3.762;2023-06-14T12:00:53;4.18;;;3.20;;
78646;SDS011;67961;43.460;3.762;2023-06-14T12:03:23;2.97;;;2.67;;
78646;SDS011;67961;43.460;3.762;2023-06-14T12:06:05;4.68;;;2.85;;
78646;SDS011;67961;43.460;3.762;2023-06-14T12:08:36;3.50;;;2.88;;
78646;SDS011;67961;43.460;3.762;2023-06-14T12:11:05;4.38;;;3.22;;
78646;SDS011;67961;43.460;3.762;2023-06-14T12:13:33;3.63;;;2.40;;
78646;SDS011;67961;43.460;3.762;2023-06-14T12:15:59;5.85;;;3.20;;
78646;SDS011;67961;43.460;3.762;2023-06-14T12:18:32;6.63;;;3.45;;
78646;SDS011;67961;43.460;3.762;2023-06-14T12:20:59;4.80;;;3.05;;
78646;SDS011;67961;43.460;3.762;2023-06-14T12:26:05;6.85;;;3.92;;
78646;SDS011;67961;43.460;3.762;2023-06-14T12:28:31;4.25;;;2.97;;
78646;SDS011;67961;43.460;3.762;2023-06-14T12:30:57;4.78;;;3.40;;
78646;SDS011;67961;43.460;3.762;2023-06-14T12:33:24;5.57;;;3.10;;
78646;SDS011;67961;43.460;3.762;2023-06-14T12:35:50;8.63;;;3.25;;
78646;SDS011;67961;43.460;3.762;2023-06-14T12:38:17;5.18;;;3.45;;
78646;SDS011;67961;43.460;3.762;2023-06-14T12:40:43;16.08;;;3.22;;
78646;SDS011;67961;43.460;3.762;2023-06-14T12:43:09;5.85;;;3.33;;
78646;SDS011;67961;43.460;3.762;2023-06-14T12:45:35;6.70;;;3.10;;
78646;SDS011;67961;43.460;3.762;2023-06-14T12:48:01;4.25;;;2.97;;
78646;SDS011;67961;43.460;3.762;2023-06-14T12:50:27;3.75;;;3.25;;
78646;SDS011;67961;43.460;3.762;2023-06-14T12:52:53;5.00;;;2.92;;
78646;SDS011;67961;43.460;3.762;2023-06-14T12:55:19;3.53;;;2.92;;
78646;SDS011;67961;43.460;3.762;2023-06-14T12:57:45;5.57;;;2.92;;
78646;SDS011;67961;43.460;3.762;2023-06-14T13:00:14;5.18;;;3.38;;
78646;SDS011;67961;43.460;3.762;2023-06-14T13:02:40;5.40;;;2.92;;
78646;SDS011;67961;43.460;3.762;2023-06-14T13:05:06;5.10;;;3.30;;
78646;SDS011;67961;43.460;3.762;2023-06-14T13:07:32;5.50;;;3.30;;
78646;SDS011;67961;43.460;3.762;2023-06-14T13:09:58;3.70;;;3.28;;
78646;SDS011;67961;43.460;3.762;2023-06-14T13:12:24;4.57;;;3.60;;
78646;SDS011;67961;43.460;3.762;2023-06-14T13:14:50;11.10;;;3.10;;
78646;SDS011;67961;43.460;3.762;2023-06-14T13:17:16;5.43;;;4.28;;
78646;SDS011;67961;43.460;3.762;2023-06-14T13:19:42;4.57;;;3.38;;
78646;SDS011;67961;43.460;3.762;2023-06-14T13:22:08;5.78;;;4.00;;
78646;SDS011;67961;43.460;3.762;2023-06-14T13:24:34;9.55;;;4.40;;
78646;SDS011;67961;43.460;3.762;2023-06-14T13:27:01;6.32;;;3.67;;
78646;SDS011;67961;43.460;3.762;2023-06-14T13:29:27;5.28;;;3.63;;
78646;SDS011;67961;43.460;3.762;2023-06-14T13:31:53;6.82;;;3.75;;
78646;SDS011;67961;43.460;3.762;2023-06-14T13:34:20;5.88;;;4.03;;
78646;SDS011;67961;43.460;3.762;2023-06-14T13:36:46;6.32;;;4.20;;
78646;SDS011;67961;43.460;3.762;2023-06-14T13:39:12;5.63;;;4.43;;
78646;SDS011;67961;43.460;3.762;2023-06-14T13:41:38;6.55;;;3.85;;
78646;SDS011;67961;43.460;3.762;2023-06-14T13:44:04;7.22;;;3.83;;
78646;SDS011;67961;43.460;3.762;2023-06-14T13:46:30;5.85;;;4.18;;
78646;SDS011;67961;43.460;3.762;2023-06-14T13:48:56;7.43;;;3.90;;
78646;SDS011;67961;43.460;3.762;2023-06-14T13:51:23;4.85;;;3.72;;
78646;SDS011;67961;43.460;3.762;2023-06-14T13:53:49;6.38;;;3.80;;
78646;SDS011;67961;43.460;3.762;2023-06-14T13:56:16;6.93;;;3.95;;
78646;SDS011;67961;43.460;3.762;2023-06-14T13:58:42;5.18;;;3.83;;
78646;SDS011;67961;43.460;3.762;2023-06-14T14:01:08;6.53;;;4.22;;
78646;SDS011;67961;43.460;3.762;2023-06-14T14:03:35;6.35;;;4.43;;
78646;SDS011;67961;43.460;3.762;2023-06-14T14:06:01;5.40;;;4.38;;
78646;SDS011;67961;43.460;3.762;2023-06-14T14:08:28;12.88;;;6.63;;
78646;SDS011;67961;43.460;3.762;2023-06-14T14:10:54;8.57;;;5.22;;
78646;SDS011;67961;43.460;3.762;2023-06-14T14:13:21;6.72;;;4.40;;
78646;SDS011;67961;43.460;3.762;2023-06-14T14:15:47;7.03;;;4.22;;
78646;SDS011;67961;43.460;3.762;2023-06-14T14:18:14;15.45;;;4.80;;
78646;SDS011;67961;43.460;3.762;2023-06-14T14:20:40;8.27;;;4.47;;
78646;SDS011;67961;43.460;3.762;2023-06-14T14:23:06;7.30;;;4.13;;
78646;SDS011;67961;43.460;3.762;2023-06-14T14:25:32;7.30;;;4.50;;
78646;SDS011;67961;43.460;3.762;2023-06-14T14:27:58;6.65;;;4.72;;
78646;SDS011;67961;43.460;3.762;2023-06-14T14:30:24;6.65;;;5.25;;
78646;SDS011;67961;43.460;3.762;2023-06-14T14:32:50;6.78;;;5.05;;
78646;SDS011;67961;43.460;3.762;2023-06-14T14:35:17;6.93;;;4.68;;
78646;SDS011;67961;43.460;3.762;2023-06-14T14:37:44;6.40;;;4.90;;
78646;SDS011;67961;43.460;3.762;2023-06-14T14:40:10;8.25;;;4.97;;
78646;SDS011;67961;43.460;3.762;2023-06-14T14:42:36;8.80;;;5.35;;
78646;SDS011;67961;43.460;3.762;2023-06-14T14:45:02;9.43;;;5.20;;
78646;SDS011;67961;43.460;3.762;2023-06-14T14:47:29;7.65;;;5.10;;
78646;SDS011;67961;43.460;3.762;2023-06-14T14:49:55;7.25;;;5.30;;
78646;SDS011;67961;43.460;3.762;2023-06-14T14:52:21;8.60;;;5.53;;
78646;SDS011;67961;43.460;3.762;2023-06-14T14:54:47;8.30;;;5.78;;
78646;SDS011;67961;43.460;3.762;2023-06-14T14:57:13;7.65;;;5.28;;
78646;SDS011;67961;43.460;3.762;2023-06-14T14:59:39;8.68;;;5.35;;
78646;SDS011;67961;43.460;3.762;2023-06-14T15:02:05;7.75;;;5.15;;
78646;SDS011;67961;43.460;3.762;2023-06-14T15:04:31;10.07;;;5.07;;
78646;SDS011;67961;43.460;3.762;2023-06-14T15:06:57;6.68;;;5.18;;